sensor_id;sensor_type;location;lat;lon;timestamp;pressure;altitude;pressure_sealevel;temperature;humidity
49072;BME280;74284;52.610;10.236;2024-03-02T00:01:53;99999.47;;;10.12;62.37
49072;BME280;74284;52.610;10.236;2024-03-02T00:04:18;100010.31;;;9.91;62.02
49072;BME280;74284;52.610;10.236;2024-03-02T00:06:43;100001.31;;;9.94;62.22
49072;BME280;74284;52.610;10.236;2024-03-02T00:09:10;100001.91;;;9.83;62.95
49072;BME280;74284;52.610;10.236;2024-03-02T00:11:37;100006.31;;;10.00;62.15
49072;BME280;74284;52.610;10.236;2024-03-02T00:14:03;99999.25;;;9.83;63.17
49072;BME280;74284;52.610;10.236;2024-03-02T00:16:32;100004.09;;;9.75;63.82
49072;BME280;74284;52.610;10.236;2024-03-02T00:19:07;100004.66;;;9.64;64.28
49072;BME280;74284;52.610;10.236;2024-03-02T00:21:34;100008.84;;;9.68;64.23
49072;BME280;74284;52.610;10.236;2024-03-02T00:23:59;100000.69;;;9.73;63.77
49072;BME280;74284;52.610;10.236;2024-03-02T00:26:27;99995.53;;;9.70;63.61
49072;BME280;74284;52.610;10.236;2024-03-02T00:28:56;100007.03;;;9.86;64.43
49072;BME280;74284;52.610;10.236;2024-03-02T00:31:25;99997.16;;;9.73;63.70
49072;BME280;74284;52.610;10.236;2024-03-02T00:33:51;100003.72;;;9.65;63.88
49072;BME280;74284;52.610;10.236;2024-03-02T00:36:22;99998.75;;;9.59;64.98
49072;BME280;74284;52.610;10.236;2024-03-02T00:38:51;99995.91;;;9.62;64.25
49072;BME280;74284;52.610;10.236;2024-03-02T00:41:22;99988.63;;;9.67;64.20
49072;BME280;74284;52.610;10.236;2024-03-02T00:44:04;99993.50;;;9.58;64.64
49072;BME280;74284;52.610;10.236;2024-03-02T00:46:38;99991.75;;;9.58;64.26
49072;BME280;74284;52.610;10.236;2024-03-02T00:49:18;99986.03;;;9.66;63.76
49072;BME280;74284;52.610;10.236;2024-03-02T00:51:47;99979.88;;;9.65;64.01
49072;BME280;74284;52.610;10.236;2024-03-02T00:54:14;99985.16;;;9.65;64.01
49072;BME280;74284;52.610;10.236;2024-03-02T00:56:41;99981.75;;;9.63;64.07
49072;BME280;74284;52.610;10.236;2024-03-02T00:59:06;99981.66;;;9.65;64.08
49072;BME280;74284;52.610;10.236;2024-03-02T01:01:32;99983.56;;;9.63;63.93
49072;BME280;74284;52.610;10.236;2024-03-02T01:03:57;99983.31;;;9.67;63.87
49072;BME280;74284;52.610;10.236;2024-03-02T01:06:23;99981.28;;;9.73;63.35
49072;BME280;74284;52.610;10.236;2024-03-02T01:08:48;99981.03;;;9.77;63.55
49072;BME280;74284;52.610;10.236;2024-03-02T01:11:16;99978.28;;;9.79;63.21
49072;BME280;74284;52.610;10.236;2024-03-02T01:13:41;99987.19;;;9.78;63.25
49072;BME280;74284;52.610;10.236;2024-03-02T01:16:06;99982.38;;;9.68;63.93
49072;BME280;74284;52.610;10.236;2024-03-02T01:18:32;99988.03;;;9.78;63.63
49072;BME280;74284;52.610;10.236;2024-03-02T01:20:57;99984.84;;;9.72;63.81
49072;BME280;74284;52.610;10.236;2024-03-02T01:23:23;99986.41;;;9.76;63.45
49072;BME280;74284;52.610;10.236;2024-03-02T01:25:49;99981.09;;;9.76;63.85
49072;BME280;74284;52.610;10.236;2024-03-02T01:28:14;99992.25;;;9.82;64.02
49072;BME280;74284;52.610;10.236;2024-03-02T01:30:40;99981.56;;;9.84;63.23
49072;BME280;74284;52.610;10.236;2024-03-02T01:33:06;99987.94;;;9.80;63.09
49072;BME280;74284;52.610;10.236;2024-03-02T01:35:32;99992.72;;;9.73;63.55
49072;BME280;74284;52.610;10.236;2024-03-02T01:37:57;99984.69;;;9.75;63.67
49072;BME280;74284;52.610;10.236;2024-03-02T01:40:23;99986.22;;;9.63;64.06
49072;BME280;74284;52.610;10.236;2024-03-02T01:42:51;99989.63;;;9.65;64.02
49072;BME280;74284;52.610;10.236;2024-03-02T01:45:17;99988.28;;;9.74;63.85
49072;BME280;74284;52.610;10.236;2024-03-02T01:47:42;99989.75;;;9.79;63.55
49072;BME280;74284;52.610;10.236;2024-03-02T01:50:08;99990.22;;;10.03;64.12
49072;BME280;74284;52.610;10.236;2024-03-02T01:52:34;99989.59;;;9.82;63.62
49072;BME280;74284;52.610;10.236;2024-03-02T01:54:59;99983.34;;;9.83;63.73
49072;BME280;74284;52.610;10.236;2024-03-02T01:57:24;99984.53;;;9.78;63.95
49072;BME280;74284;52.610;10.236;2024-03-02T01:59:50;99981.19;;;9.74;63.92
49072;BME280;74284;52.610;10.236;2024-03-02T02:02:18;99976.13;;;9.69;64.12
49072;BME280;74284;52.610;10.236;2024-03-02T02:04:45;99977.38;;;9.62;64.26
49072;BME280;74284;52.610;10.236;2024-03-02T02:07:10;99978.94;;;9.66;64.21
49072;BME280;74284;52.610;10.236;2024-03-02T02:09:36;99980.91;;;9.63;63.94
49072;BME280;74284;52.610;10.236;2024-03-02T02:12:01;99978.25;;;9.63;64.08
49072;BME280;74284;52.610;10.236;2024-03-02T02:14:27;99975.00;;;9.91;64.10
49072;BME280;74284;52.610;10.236;2024-03-02T02:16:53;99976.13;;;9.69;63.54
49072;BME280;74284;52.610;10.236;2024-03-02T02:19:19;99972.09;;;9.62;63.97
49072;BME280;74284;52.610;10.236;2024-03-02T02:21:44;99976.75;;;9.57;64.43
49072;BME280;74284;52.610;10.236;2024-03-02T02:24:10;99969.00;;;9.37;65.51
49072;BME280;74284;52.610;10.236;2024-03-02T02:26:36;99974.22;;;9.38;65.24
49072;BME280;74284;52.610;10.236;2024-03-02T02:29:01;99971.56;;;9.38;65.13
49072;BME280;74284;52.610;10.236;2024-03-02T02:31:27;99965.88;;;9.29;66.14
49072;BME280;74284;52.610;10.236;2024-03-02T02:34:01;99964.72;;;9.17;66.52
49072;BME280;74284;52.610;10.236;2024-03-02T02:36:26;99961.81;;;9.22;66.07
49072;BME280;74284;52.610;10.236;2024-03-02T02:38:51;99964.94;;;9.30;65.66
49072;BME280;74284;52.610;10.236;2024-03-02T02:41:17;99962.84;;;9.19;66.74
49072;BME280;74284;52.610;10.236;2024-03-02T02:43:42;99954.13;;;9.17;66.41
49072;BME280;74284;52.610;10.236;2024-03-02T02:46:08;99962.69;;;9.05;66.70
49072;BME280;74284;52.610;10.236;2024-03-02T02:48:33;99961.38;;;8.96;67.55
49072;BME280;74284;52.610;10.236;2024-03-02T02:50:58;99962.84;;;9.19;65.94
49072;BME280;74284;52.610;10.236;2024-03-02T02:53:24;99966.88;;;9.26;65.61
49072;BME280;74284;52.610;10.236;2024-03-02T02:55:49;99955.88;;;9.18;66.30
49072;BME280;74284;52.610;10.236;2024-03-02T02:58:14;99956.53;;;9.22;66.27
49072;BME280;74284;52.610;10.236;2024-03-02T03:00:40;99950.38;;;9.21;65.87
49072;BME280;74284;52.610;10.236;2024-03-02T03:03:05;99953.50;;;9.12;66.24
49072;BME280;74284;52.610;10.236;2024-03-02T03:05:30;99945.41;;;9.15;66.11
49072;BME280;74284;52.610;10.236;2024-03-02T03:07:56;99956.47;;;9.23;65.91
49072;BME280;74284;52.610;10.236;2024-03-02T03:10:21;99959.13;;;9.23;65.42
49072;BME280;74284;52.610;10.236;2024-03-02T03:12:48;99951.34;;;9.20;66.48
49072;BME280;74284;52.610;10.236;2024-03-02T03:15:14;99946.88;;;9.38;65.36
49072;BME280;74284;52.610;10.236;2024-03-02T03:17:41;99948.31;;;9.28;65.86
49072;BME280;74284;52.610;10.236;2024-03-02T03:20:07;99954.44;;;9.28;66.00
49072;BME280;74284;52.610;10.236;2024-03-02T03:22:35;99951.72;;;9.30;65.47
49072;BME280;74284;52.610;10.236;2024-03-02T03:25:01;99943.53;;;9.34;65.27
49072;BME280;74284;52.610;10.236;2024-03-02T03:27:26;99950.72;;;9.32;65.62
49072;BME280;74284;52.610;10.236;2024-03-02T03:29:52;99942.91;;;9.29;65.73
49072;BME280;74284;52.610;10.236;2024-03-02T03:32:17;99945.47;;;9.31;65.62
49072;BME280;74284;52.610;10.236;2024-03-02T03:34:42;99956.63;;;9.37;65.73
49072;BME280;74284;52.610;10.236;2024-03-02T03:37:08;99943.31;;;9.39;65.17
49072;BME280;74284;52.610;10.236;2024-03-02T03:39:34;99946.75;;;9.24;65.70
49072;BME280;74284;52.610;10.236;2024-03-02T03:42:00;99947.97;;;9.16;65.89
49072;BME280;74284;52.610;10.236;2024-03-02T03:44:25;99947.38;;;9.29;65.78
49072;BME280;74284;52.610;10.236;2024-03-02T03:46:51;99950.72;;;9.32;65.30
49072;BME280;74284;52.610;10.236;2024-03-02T03:49:16;99952.34;;;9.35;65.42
49072;BME280;74284;52.610;10.236;2024-03-02T03:51:42;99941.84;;;9.33;65.67
49072;BME280;74284;52.610;10.236;2024-03-02T03:54:07;99942.63;;;9.35;65.35
49072;BME280;74284;52.610;10.236;2024-03-02T03:56:33;99946.50;;;9.28;65.91
49072;BME280;74284;52.610;10.236;2024-03-02T03:58:58;99944.84;;;9.26;65.38
49072;BME280;74284;52.610;10.236;2024-03-02T04:01:24;99943.53;;;9.52;65.84
49072;BME280;74284;52.610;10.236;2024-03-02T04:03:50;99941.22;;;9.46;64.18
49072;BME280;74284;52.610;10.236;2024-03-02T04:06:15;99942.81;;;9.48;64.14
49072;BME280;74284;52.610;10.236;2024-03-02T04:08:42;99937.00;;;9.41;64.56
49072;BME280;74284;52.610;10.236;2024-03-02T04:11:08;99940.97;;;9.33;65.20
49072;BME280;74284;52.610;10.236;2024-03-02T04:13:33;99943.78;;;9.30;64.96
49072;BME280;74284;52.610;10.236;2024-03-02T04:15:59;99940.88;;;9.34;64.86
49072;BME280;74284;52.610;10.236;2024-03-02T04:18:24;99949.88;;;9.32;64.96
49072;BME280;74284;52.610;10.236;2024-03-02T04:20:49;99941.44;;;9.24;64.96
49072;BME280;74284;52.610;10.236;2024-03-02T04:23:14;99943.88;;;9.28;64.78
49072;BME280;74284;52.610;10.236;2024-03-02T04:25:40;99936.53;;;9.16;65.47
49072;BME280;74284;52.610;10.236;2024-03-02T04:28:05;99939.91;;;9.19;65.04
49072;BME280;74284;52.610;10.236;2024-03-02T04:30:30;99938.66;;;9.09;65.87
49072;BME280;74284;52.610;10.236;2024-03-02T04:32:56;99941.44;;;9.06;65.55
49072;BME280;74284;52.610;10.236;2024-03-02T04:35:21;99938.19;;;9.01;65.85
49072;BME280;74284;52.610;10.236;2024-03-02T04:37:46;99950.94;;;9.10;65.17
49072;BME280;74284;52.610;10.236;2024-03-02T04:40:12;99951.25;;;9.22;64.57
49072;BME280;74284;52.610;10.236;2024-03-02T04:42:37;99948.44;;;9.25;64.30
49072;BME280;74284;52.610;10.236;2024-03-02T04:45:03;99947.22;;;9.14;64.77
49072;BME280;74284;52.610;10.236;2024-03-02T04:47:29;99950.72;;;9.15;64.79
49072;BME280;74284;52.610;10.236;2024-03-02T04:49:54;99945.03;;;9.05;65.33
49072;BME280;74284;52.610;10.236;2024-03-02T04:52:19;99955.06;;;9.16;64.46
49072;BME280;74284;52.610;10.236;2024-03-02T04:54:45;99947.22;;;9.14;65.06
49072;BME280;74284;52.610;10.236;2024-03-02T04:57:28;99947.75;;;9.21;64.16
49072;BME280;74284;52.610;10.236;2024-03-02T04:59:54;99952.75;;;9.27;63.98
49072;BME280;74284;52.610;10.236;2024-03-02T05:02:19;99956.88;;;9.33;63.77
49072;BME280;74284;52.610;10.236;2024-03-02T05:04:44;99952.97;;;9.23;63.99
49072;BME280;74284;52.610;10.236;2024-03-02T05:07:10;99951.91;;;9.27;64.36
49072;BME280;74284;52.610;10.236;2024-03-02T05:09:35;99945.03;;;9.23;64.15
49072;BME280;74284;52.610;10.236;2024-03-02T05:12:01;99948.63;;;9.04;65.00
49072;BME280;74284;52.610;10.236;2024-03-02T05:14:41;99953.13;;;9.02;64.81
49072;BME280;74284;52.610;10.236;2024-03-02T05:17:06;99945.41;;;8.98;65.51
49072;BME280;74284;52.610;10.236;2024-03-02T05:19:32;99948.66;;;9.03;65.09
49072;BME280;74284;52.610;10.236;2024-03-02T05:21:57;99947.34;;;9.11;64.23
49072;BME280;74284;52.610;10.236;2024-03-02T05:24:22;99945.88;;;9.06;64.99
49072;BME280;74284;52.610;10.236;2024-03-02T05:26:48;99942.88;;;9.13;64.13
49072;BME280;74284;52.610;10.236;2024-03-02T05:29:14;99951.41;;;9.18;64.38
49072;BME280;74284;52.610;10.236;2024-03-02T05:31:39;99954.91;;;9.19;63.84
49072;BME280;74284;52.610;10.236;2024-03-02T05:34:05;99944.94;;;9.07;64.54
49072;BME280;74284;52.610;10.236;2024-03-02T05:36:31;99952.41;;;9.16;64.47
49072;BME280;74284;52.610;10.236;2024-03-02T05:38:56;99956.78;;;9.34;64.05
49072;BME280;74284;52.610;10.236;2024-03-02T05:41:22;99963.84;;;9.16;64.11
49072;BME280;74284;52.610;10.236;2024-03-02T05:43:47;99956.72;;;9.18;64.13
49072;BME280;74284;52.610;10.236;2024-03-02T05:46:12;99962.25;;;9.14;64.63
49072;BME280;74284;52.610;10.236;2024-03-02T05:48:38;99947.03;;;8.83;65.69
49072;BME280;74284;52.610;10.236;2024-03-02T05:51:03;99958.16;;;8.89;65.60
49072;BME280;74284;52.610;10.236;2024-03-02T05:53:28;99956.44;;;8.88;65.54
49072;BME280;74284;52.610;10.236;2024-03-02T05:55:54;99957.91;;;8.77;66.11
49072;BME280;74284;52.610;10.236;2024-03-02T05:58:21;99958.13;;;8.72;66.46
49072;BME280;74284;52.610;10.236;2024-03-02T06:01:03;99956.78;;;8.63;66.67
49072;BME280;74284;52.610;10.236;2024-03-02T06:03:30;99952.13;;;8.68;66.72
49072;BME280;74284;52.610;10.236;2024-03-02T06:05:55;99955.38;;;8.74;66.51
49072;BME280;74284;52.610;10.236;2024-03-02T06:08:20;99962.59;;;8.70;66.53
49072;BME280;74284;52.610;10.236;2024-03-02T06:10:46;99960.91;;;8.69;66.48
49072;BME280;74284;52.610;10.236;2024-03-02T06:13:11;99954.75;;;8.68;66.47
49072;BME280;74284;52.610;10.236;2024-03-02T06:15:37;99955.25;;;8.58;66.79
49072;BME280;74284;52.610;10.236;2024-03-02T06:18:02;99957.22;;;8.54;67.31
49072;BME280;74284;52.610;10.236;2024-03-02T06:20:27;99962.50;;;8.54;67.04
49072;BME280;74284;52.610;10.236;2024-03-02T06:22:55;99970.34;;;8.56;67.37
49072;BME280;74284;52.610;10.236;2024-03-02T06:25:21;99963.78;;;8.64;66.16
49072;BME280;74284;52.610;10.236;2024-03-02T06:27:46;99972.88;;;8.59;66.87
49072;BME280;74284;52.610;10.236;2024-03-02T06:30:12;99976.34;;;8.59;66.81
49072;BME280;74284;52.610;10.236;2024-03-02T06:32:37;99969.22;;;8.42;67.27
49072;BME280;74284;52.610;10.236;2024-03-02T06:35:03;99973.56;;;8.43;67.47
49072;BME280;74284;52.610;10.236;2024-03-02T06:37:30;99970.50;;;8.15;68.71
49072;BME280;74284;52.610;10.236;2024-03-02T06:39:55;99975.72;;;8.35;67.83
49072;BME280;74284;52.610;10.236;2024-03-02T06:42:20;99981.59;;;8.42;67.78
49072;BME280;74284;52.610;10.236;2024-03-02T06:44:45;99990.16;;;8.47;67.01
49072;BME280;74284;52.610;10.236;2024-03-02T06:47:11;99990.00;;;8.50;66.88
49072;BME280;74284;52.610;10.236;2024-03-02T06:49:36;99998.59;;;8.55;66.50
49072;BME280;74284;52.610;10.236;2024-03-02T06:52:02;100001.31;;;8.54;66.73
49072;BME280;74284;52.610;10.236;2024-03-02T06:54:27;99999.00;;;8.65;66.36
49072;BME280;74284;52.610;10.236;2024-03-02T06:56:52;100002.94;;;8.56;66.74
49072;BME280;74284;52.610;10.236;2024-03-02T06:59:18;99994.66;;;8.64;66.16
49072;BME280;74284;52.610;10.236;2024-03-02T07:01:43;99999.03;;;8.46;67.11
49072;BME280;74284;52.610;10.236;2024-03-02T07:04:09;99998.44;;;8.39;67.34
49072;BME280;74284;52.610;10.236;2024-03-02T07:06:34;99992.47;;;8.36;68.04
49072;BME280;74284;52.610;10.236;2024-03-02T07:08:59;99999.50;;;8.35;67.47
49072;BME280;74284;52.610;10.236;2024-03-02T07:11:25;99993.88;;;8.43;67.23
49072;BME280;74284;52.610;10.236;2024-03-02T07:13:50;100008.03;;;8.42;67.31
49072;BME280;74284;52.610;10.236;2024-03-02T07:16:15;100010.75;;;8.40;68.06
49072;BME280;74284;52.610;10.236;2024-03-02T07:18:54;100020.91;;;8.67;66.86
49072;BME280;74284;52.610;10.236;2024-03-02T07:21:21;100015.22;;;8.57;67.36
49072;BME280;74284;52.610;10.236;2024-03-02T07:23:47;100014.63;;;8.88;67.77
49072;BME280;74284;52.610;10.236;2024-03-02T07:26:12;100017.91;;;8.93;66.41
49072;BME280;74284;52.610;10.236;2024-03-02T07:28:38;100013.69;;;8.89;66.29
49072;BME280;74284;52.610;10.236;2024-03-02T07:31:04;100007.41;;;8.92;66.95
49072;BME280;74284;52.610;10.236;2024-03-02T07:33:30;100010.34;;;9.39;66.43
49072;BME280;74284;52.610;10.236;2024-03-02T07:35:56;100009.69;;;9.17;66.41
49072;BME280;74284;52.610;10.236;2024-03-02T07:38:22;100014.75;;;9.22;65.99
49072;BME280;74284;52.610;10.236;2024-03-02T07:40:48;100013.94;;;9.38;65.77
49072;BME280;74284;52.610;10.236;2024-03-02T07:43:16;100020.47;;;9.49;65.59
49072;BME280;74284;52.610;10.236;2024-03-02T07:45:42;100026.78;;;9.46;65.68
49072;BME280;74284;52.610;10.236;2024-03-02T07:48:07;100027.94;;;9.58;64.72
49072;BME280;74284;52.610;10.236;2024-03-02T07:50:32;100033.69;;;9.83;64.25
49072;BME280;74284;52.610;10.236;2024-03-02T07:53:02;100022.69;;;9.91;64.21
49072;BME280;74284;52.610;10.236;2024-03-02T07:55:29;100033.69;;;9.83;65.05
49072;BME280;74284;52.610;10.236;2024-03-02T07:57:55;100024.69;;;10.03;63.44
49072;BME280;74284;52.610;10.236;2024-03-02T08:00:20;100034.97;;;10.09;63.67
49072;BME280;74284;52.610;10.236;2024-03-02T08:02:46;100027.63;;;10.32;63.10
49072;BME280;74284;52.610;10.236;2024-03-02T08:05:11;100027.19;;;10.39;62.00
49072;BME280;74284;52.610;10.236;2024-03-02T08:07:36;100032.41;;;10.57;61.89
49072;BME280;74284;52.610;10.236;2024-03-02T08:10:02;100034.16;;;10.74;61.66
49072;BME280;74284;52.610;10.236;2024-03-02T08:12:28;100033.03;;;10.78;61.29
49072;BME280;74284;52.610;10.236;2024-03-02T08:14:53;100027.47;;;10.82;60.88
49072;BME280;74284;52.610;10.236;2024-03-02T08:17:18;100027.56;;;10.65;61.36
49072;BME280;74284;52.610;10.236;2024-03-02T08:19:44;100031.91;;;10.82;61.15
49072;BME280;74284;52.610;10.236;2024-03-02T08:22:09;100033.47;;;10.54;61.57
49072;BME280;74284;52.610;10.236;2024-03-02T08:24:35;100039.59;;;10.70;61.49
49072;BME280;74284;52.610;10.236;2024-03-02T08:27:01;100032.19;;;10.77;61.01
49072;BME280;74284;52.610;10.236;2024-03-02T08:29:26;100037.66;;;10.90;60.52
49072;BME280;74284;52.610;10.236;2024-03-02T08:31:52;100032.75;;;10.98;60.20
49072;BME280;74284;52.610;10.236;2024-03-02T08:34:18;100042.88;;;10.91;60.37
49072;BME280;74284;52.610;10.236;2024-03-02T08:36:43;100043.44;;;11.12;59.85
49072;BME280;74284;52.610;10.236;2024-03-02T08:39:08;100042.28;;;11.48;58.60
49072;BME280;74284;52.610;10.236;2024-03-02T08:41:45;100039.75;;;11.31;59.16
49072;BME280;74284;52.610;10.236;2024-03-02T08:44:11;100041.78;;;11.26;59.34
49072;BME280;74284;52.610;10.236;2024-03-02T08:46:37;100040.81;;;11.42;59.14
49072;BME280;74284;52.610;10.236;2024-03-02T08:49:03;100040.25;;;11.67;57.99
49072;BME280;74284;52.610;10.236;2024-03-02T08:51:28;100041.88;;;11.40;57.76
49072;BME280;74284;52.610;10.236;2024-03-02T08:53:53;100039.72;;;11.77;58.12
49072;BME280;74284;52.610;10.236;2024-03-02T08:56:18;100036.56;;;11.84;58.01
49072;BME280;74284;52.610;10.236;2024-03-02T08:58:45;100035.53;;;11.87;57.89
49072;BME280;74284;52.610;10.236;2024-03-02T09:01:11;100032.78;;;12.03;58.08
49072;BME280;74284;52.610;10.236;2024-03-02T09:03:36;100027.94;;;12.52;56.30
49072;BME280;74284;52.610;10.236;2024-03-02T09:06:02;100031.44;;;12.53;56.13
49072;BME280;74284;52.610;10.236;2024-03-02T09:08:28;100036.47;;;12.57;56.02
49072;BME280;74284;52.610;10.236;2024-03-02T09:10:55;100028.44;;;12.44;56.07
49072;BME280;74284;52.610;10.236;2024-03-02T09:13:21;100030.97;;;12.75;55.26
49072;BME280;74284;52.610;10.236;2024-03-02T09:15:46;100036.50;;;12.71;54.34
49072;BME280;74284;52.610;10.236;2024-03-02T09:18:11;100034.69;;;12.72;55.62
49072;BME280;74284;52.610;10.236;2024-03-02T09:20:36;100031.78;;;13.16;54.27
49072;BME280;74284;52.610;10.236;2024-03-02T09:23:02;100042.72;;;12.99;54.77
49072;BME280;74284;52.610;10.236;2024-03-02T09:25:27;100039.22;;;13.11;53.71
49072;BME280;74284;52.610;10.236;2024-03-02T09:27:52;100039.38;;;13.22;54.02
49072;BME280;74284;52.610;10.236;2024-03-02T09:30:18;100034.66;;;13.40;53.50
49072;BME280;74284;52.610;10.236;2024-03-02T09:32:43;100039.34;;;13.49;51.24
49072;BME280;74284;52.610;10.236;2024-03-02T09:35:08;100039.31;;;13.37;53.11
49072;BME280;74284;52.610;10.236;2024-03-02T09:37:34;100047.09;;;13.80;51.41
49072;BME280;74284;52.610;10.236;2024-03-02T09:39:59;100049.41;;;13.71;52.88
49072;BME280;74284;52.610;10.236;2024-03-02T09:42:24;100050.53;;;13.82;51.39
49072;BME280;74284;52.610;10.236;2024-03-02T09:44:51;100050.91;;;13.63;52.47
49072;BME280;74284;52.610;10.236;2024-03-02T09:47:17;100046.69;;;13.73;51.10
49072;BME280;74284;52.610;10.236;2024-03-02T09:49:42;100056.41;;;13.87;52.43
49072;BME280;74284;52.610;10.236;2024-03-02T09:52:10;100063.53;;;13.86;52.42
49072;BME280;74284;52.610;10.236;2024-03-02T09:54:35;100051.31;;;13.69;52.45
49072;BME280;74284;52.610;10.236;2024-03-02T09:57:01;100050.53;;;14.07;51.03
49072;BME280;74284;52.610;10.236;2024-03-02T09:59:27;100055.00;;;13.94;51.93
49072;BME280;74284;52.610;10.236;2024-03-02T10:01:58;100055.88;;;13.94;51.28
49072;BME280;74284;52.610;10.236;2024-03-02T10:04:25;100062.16;;;14.06;51.84
49072;BME280;74284;52.610;10.236;2024-03-02T10:06:51;100061.53;;;13.90;51.12
49072;BME280;74284;52.610;10.236;2024-03-02T10:09:28;100066.13;;;14.01;49.82
49072;BME280;74284;52.610;10.236;2024-03-02T10:12:04;100060.78;;;14.01;50.63
49072;BME280;74284;52.610;10.236;2024-03-02T10:14:30;100064.63;;;13.96;51.44
49072;BME280;74284;52.610;10.236;2024-03-02T10:16:55;100066.22;;;14.24;50.33
49072;BME280;74284;52.610;10.236;2024-03-02T10:19:26;100066.31;;;14.10;51.37
49072;BME280;74284;52.610;10.236;2024-03-02T10:21:52;100064.84;;;13.54;50.50
49072;BME280;74284;52.610;10.236;2024-03-02T10:24:19;100068.75;;;13.48;51.35
49072;BME280;74284;52.610;10.236;2024-03-02T10:26:44;100071.75;;;13.96;51.35
49072;BME280;74284;52.610;10.236;2024-03-02T10:29:10;100071.22;;;14.16;49.30
49072;BME280;74284;52.610;10.236;2024-03-02T10:31:40;100071.31;;;14.02;49.80
49072;BME280;74284;52.610;10.236;2024-03-02T10:34:07;100071.63;;;13.72;50.52
49072;BME280;74284;52.610;10.236;2024-03-02T10:36:34;100068.75;;;13.88;50.30
49072;BME280;74284;52.610;10.236;2024-03-02T10:39:02;100068.00;;;13.73;50.46
49072;BME280;74284;52.610;10.236;2024-03-02T10:41:34;100063.00;;;14.07;49.71
49072;BME280;74284;52.610;10.236;2024-03-02T10:44:02;100066.66;;;14.06;50.64
49072;BME280;74284;52.610;10.236;2024-03-02T10:46:29;100067.91;;;14.25;50.17
49072;BME280;74284;52.610;10.236;2024-03-02T10:48:56;100069.44;;;14.17;50.88
49072;BME280;74284;52.610;10.236;2024-03-02T10:51:24;100078.59;;;14.38;50.43
49072;BME280;74284;52.610;10.236;2024-03-02T10:53:49;100076.28;;;14.70;49.95
49072;BME280;74284;52.610;10.236;2024-03-02T10:56:21;100065.53;;;14.59;49.29
49072;BME280;74284;52.610;10.236;2024-03-02T10:58:51;100074.72;;;14.68;49.53
49072;BME280;74284;52.610;10.236;2024-03-02T11:01:20;100070.50;;;14.27;50.25
49072;BME280;74284;52.610;10.236;2024-03-02T11:03:46;100077.84;;;14.49;48.76
49072;BME280;74284;52.610;10.236;2024-03-02T11:06:13;100070.25;;;14.30;50.23
49072;BME280;74284;52.610;10.236;2024-03-02T11:08:40;100085.31;;;14.06;49.48
49072;BME280;74284;52.610;10.236;2024-03-02T11:11:07;100076.69;;;14.15;50.10
49072;BME280;74284;52.610;10.236;2024-03-02T11:13:37;100078.81;;;14.10;50.20
49072;BME280;74284;52.610;10.236;2024-03-02T11:16:09;100080.97;;;14.17;50.00
49072;BME280;74284;52.610;10.236;2024-03-02T11:18:38;100073.88;;;14.16;50.07
49072;BME280;74284;52.610;10.236;2024-03-02T11:21:05;100080.19;;;14.41;49.84
49072;BME280;74284;52.610;10.236;2024-03-02T11:23:32;100086.50;;;14.40;49.89
49072;BME280;74284;52.610;10.236;2024-03-02T11:26:22;100078.69;;;14.11;48.44
49072;BME280;74284;52.610;10.236;2024-03-02T11:28:50;100078.91;;;13.95;49.66
49072;BME280;74284;52.610;10.236;2024-03-02T11:31:16;100081.69;;;14.32;48.87
49072;BME280;74284;52.610;10.236;2024-03-02T11:33:42;100083.09;;;14.12;49.54
49072;BME280;74284;52.610;10.236;2024-03-02T11:36:08;100074.41;;;13.83;49.41
49072;BME280;74284;52.610;10.236;2024-03-02T11:38:34;100079.63;;;13.85;50.19
49072;BME280;74284;52.610;10.236;2024-03-02T11:41:01;100074.00;;;14.02;49.95
49072;BME280;74284;52.610;10.236;2024-03-02T11:43:28;100079.75;;;14.47;49.11
49072;BME280;74284;52.610;10.236;2024-03-02T11:45:59;100075.56;;;14.68;47.70
49072;BME280;74284;52.610;10.236;2024-03-02T11:48:26;100079.22;;;14.67;48.82
49072;BME280;74284;52.610;10.236;2024-03-02T11:50:51;100069.88;;;15.22;48.31
49072;BME280;74284;52.610;10.236;2024-03-02T11:53:17;100070.72;;;14.99;48.58
49072;BME280;74284;52.610;10.236;2024-03-02T11:55:44;100070.44;;;15.15;47.88
49072;BME280;74284;52.610;10.236;2024-03-02T11:58:12;100063.16;;;15.17;47.96
49072;BME280;74284;52.610;10.236;2024-03-02T12:00:38;100059.44;;;15.07;47.86
49072;BME280;74284;52.610;10.236;2024-03-02T12:03:04;100043.63;;;15.51;47.01
49072;BME280;74284;52.610;10.236;2024-03-02T12:05:30;100058.25;;;15.11;47.37
49072;BME280;74284;52.610;10.236;2024-03-02T12:08:03;100063.38;;;15.38;47.13
49072;BME280;74284;52.610;10.236;2024-03-02T12:10:29;100057.69;;;15.42;46.74
49072;BME280;74284;52.610;10.236;2024-03-02T12:13:03;100053.97;;;15.56;46.69
49072;BME280;74284;52.610;10.236;2024-03-02T12:15:31;100057.13;;;15.50;46.68
49072;BME280;74284;52.610;10.236;2024-03-02T12:17:58;100051.72;;;15.39;46.85
49072;BME280;74284;52.610;10.236;2024-03-02T12:20:25;100051.78;;;15.61;46.77
49072;BME280;74284;52.610;10.236;2024-03-02T12:22:54;100046.25;;;15.16;45.98
49072;BME280;74284;52.610;10.236;2024-03-02T12:25:21;100044.00;;;15.23;46.88
49072;BME280;74284;52.610;10.236;2024-03-02T12:27:47;100039.88;;;15.54;46.94
49072;BME280;74284;52.610;10.236;2024-03-02T12:30:16;100033.56;;;15.55;46.52
49072;BME280;74284;52.610;10.236;2024-03-02T12:32:41;100044.97;;;15.81;46.23
49072;BME280;74284;52.610;10.236;2024-03-02T12:35:07;100033.25;;;15.71;44.15
49072;BME280;74284;52.610;10.236;2024-03-02T12:37:32;100030.47;;;15.72;45.38
49072;BME280;74284;52.610;10.236;2024-03-02T12:39:58;100030.63;;;15.82;45.82
49072;BME280;74284;52.610;10.236;2024-03-02T12:42:24;100028.22;;;16.01;44.59
49072;BME280;74284;52.610;10.236;2024-03-02T12:44:52;100037.31;;;15.88;45.14
49072;BME280;74284;52.610;10.236;2024-03-02T12:47:20;100041.06;;;15.74;45.58